sensor_id;sensor_type;location;lat;lon;timestamp;pressure;altitude;pressure_sealevel;temperature;humidity
21129;BME280;10722;51.910;8.352;2023-07-24T00:02:32;99849.75;;;18.00;100.00
21129;BME280;10722;51.910;8.352;2023-07-24T00:05:17;99858.66;;;17.92;100.00
21129;BME280;10722;51.910;8.352;2023-07-24T00:08:02;99852.53;;;17.94;100.00
21129;BME280;10722;51.910;8.352;2023-07-24T00:10:48;99849.91;;;17.94;100.00
21129;BME280;10722;51.910;8.352;2023-07-24T00:13:33;99846.47;;;17.91;100.00
21129;BME280;10722;51.910;8.352;2023-07-24T00:16:17;99839.38;;;17.95;100.00
21129;BME280;10722;51.910;8.352;2023-07-24T00:19:02;99829.75;;;17.97;100.00
21129;BME280;10722;51.910;8.352;2023-07-24T00:21:47;99831.50;;;17.97;100.00
21129;BME280;10722;51.910;8.352;2023-07-24T00:24:32;99832.53;;;17.91;100.00
21129;BME280;10722;51.910;8.352;2023-07-24T00:27:18;99831.63;;;17.92;100.00
21129;BME280;10722;51.910;8.352;2023-07-24T00:30:03;99823.09;;;17.85;100.00
21129;BME280;10722;51.910;8.352;2023-07-24T00:32:48;99821.41;;;17.83;100.00
21129;BME280;10722;51.910;8.352;2023-07-24T00:35:33;99817.94;;;17.82;100.00
21129;BME280;10722;51.910;8.352;2023-07-24T00:38:19;99825.72;;;17.84;100.00
21129;BME280;10722;51.910;8.352;2023-07-24T00:41:04;99821.34;;;17.84;100.00
21129;BME280;10722;51.910;8.352;2023-07-24T00:43:49;99818.81;;;17.81;100.00
21129;BME280;10722;51.910;8.352;2023-07-24T00:46:35;99811.13;;;17.74;100.00
21129;BME280;10722;51.910;8.352;2023-07-24T00:49:21;99816.41;;;17.72;100.00
21129;BME280;10722;51.910;8.352;2023-07-24T00:52:07;99813.06;;;17.67;100.00
21129;BME280;10722;51.910;8.352;2023-07-24T00:54:53;99816.53;;;17.67;100.00
21129;BME280;10722;51.910;8.352;2023-07-24T00:57:39;99813.97;;;17.66;100.00
21129;BME280;10722;51.910;8.352;2023-07-24T01:00:24;99810.53;;;17.64;100.00
21129;BME280;10722;51.910;8.352;2023-07-24T01:03:10;99809.53;;;17.68;100.00
21129;BME280;10722;51.910;8.352;2023-07-24T01:05:56;99804.25;;;17.71;100.00
21129;BME280;10722;51.910;8.352;2023-07-24T01:08:41;99806.88;;;17.71;100.00
21129;BME280;10722;51.910;8.352;2023-07-24T01:12:27;99796.41;;;17.71;100.00
21129;BME280;10722;51.910;8.352;2023-07-24T01:15:14;99782.34;;;17.75;100.00
21129;BME280;10722;51.910;8.352;2023-07-24T01:18:04;99784.88;;;17.80;100.00
21129;BME280;10722;51.910;8.352;2023-07-24T01:20:53;99782.34;;;17.74;100.00
21129;BME280;10722;51.910;8.352;2023-07-24T01:24:05;99775.28;;;17.79;100.00
21129;BME280;10722;51.910;8.352;2023-07-24T01:26:55;99778.88;;;17.73;100.00
21129;BME280;10722;51.910;8.352;2023-07-24T01:29:40;99770.97;;;17.76;100.00
21129;BME280;10722;51.910;8.352;2023-07-24T01:32:25;99786.81;;;17.70;100.00
21129;BME280;10722;51.910;8.352;2023-07-24T01:35:10;99774.59;;;17.70;100.00
21129;BME280;10722;51.910;8.352;2023-07-24T01:37:56;99779.88;;;17.69;100.00
21129;BME280;10722;51.910;8.352;2023-07-24T01:40:42;99769.69;;;17.58;100.00
21129;BME280;10722;51.910;8.352;2023-07-24T01:43:29;99778.31;;;17.62;100.00
21129;BME280;10722;51.910;8.352;2023-07-24T01:46:15;99768.78;;;17.59;100.00
21129;BME280;10722;51.910;8.352;2023-07-24T01:48:59;99763.63;;;17.58;100.00
21129;BME280;10722;51.910;8.352;2023-07-24T01:51:44;99760.06;;;17.60;100.00
21129;BME280;10722;51.910;8.352;2023-07-24T01:54:29;99765.41;;;17.56;100.00
21129;BME280;10722;51.910;8.352;2023-07-24T01:57:14;99761.13;;;17.53;100.00
21129;BME280;10722;51.910;8.352;2023-07-24T01:59:59;99758.69;;;17.45;100.00
21129;BME280;10722;51.910;8.352;2023-07-24T02:02:44;99757.84;;;17.45;100.00
21129;BME280;10722;51.910;8.352;2023-07-24T02:05:30;99760.28;;;17.51;100.00
21129;BME280;10722;51.910;8.352;2023-07-24T02:08:14;99753.34;;;17.50;100.00
21129;BME280;10722;51.910;8.352;2023-07-24T02:11:00;99753.25;;;17.55;100.00
21129;BME280;10722;51.910;8.352;2023-07-24T02:13:45;99752.13;;;17.63;100.00
21129;BME280;10722;51.910;8.352;2023-07-24T02:16:30;99751.47;;;17.55;100.00
21129;BME280;10722;51.910;8.352;2023-07-24T02:19:15;99750.53;;;17.58;100.00
21129;BME280;10722;51.910;8.352;2023-07-24T02:22:00;99742.94;;;17.48;100.00
21129;BME280;10722;51.910;8.352;2023-07-24T02:24:45;99742.22;;;17.43;100.00
21129;BME280;10722;51.910;8.352;2023-07-24T02:27:32;99741.19;;;17.49;100.00
21129;BME280;10722;51.910;8.352;2023-07-24T02:30:17;99747.09;;;17.56;100.00
21129;BME280;10722;51.910;8.352;2023-07-24T02:33:02;99733.19;;;17.54;100.00
21129;BME280;10722;51.910;8.352;2023-07-24T02:35:47;99726.25;;;17.54;100.00
21129;BME280;10722;51.910;8.352;2023-07-24T02:38:32;99714.03;;;17.53;100.00
21129;BME280;10722;51.910;8.352;2023-07-24T02:41:17;99715.84;;;17.51;100.00
21129;BME280;10722;51.910;8.352;2023-07-24T02:44:03;99706.25;;;17.52;100.00
21129;BME280;10722;51.910;8.352;2023-07-24T02:46:48;99708.03;;;17.50;100.00
21129;BME280;10722;51.910;8.352;2023-07-24T02:49:33;99719.34;;;17.50;100.00
21129;BME280;10722;51.910;8.352;2023-07-24T02:52:18;99718.50;;;17.50;100.00
21129;BME280;10722;51.910;8.352;2023-07-24T02:55:03;99717.59;;;17.51;100.00
21129;BME280;10722;51.910;8.352;2023-07-24T02:57:48;99714.31;;;17.42;100.00
21129;BME280;10722;51.910;8.352;2023-07-24T03:00:33;99713.63;;;17.37;100.00
21129;BME280;10722;51.910;8.352;2023-07-24T03:03:19;99716.22;;;17.37;100.00
21129;BME280;10722;51.910;8.352;2023-07-24T03:06:04;99722.25;;;17.39;100.00
21129;BME280;10722;51.910;8.352;2023-07-24T03:08:49;99717.84;;;17.41;100.00
21129;BME280;10722;51.910;8.352;2023-07-24T03:11:34;99714.50;;;17.36;100.00
21129;BME280;10722;51.910;8.352;2023-07-24T03:14:19;99715.50;;;17.32;100.00
21129;BME280;10722;51.910;8.352;2023-07-24T03:17:04;99713.91;;;17.25;100.00
21129;BME280;10722;51.910;8.352;2023-07-24T03:19:49;99697.50;;;17.20;100.00
21129;BME280;10722;51.910;8.352;2023-07-24T03:22:34;99702.78;;;17.17;100.00
21129;BME280;10722;51.910;8.352;2023-07-24T03:25:19;99700.16;;;17.18;100.00
21129;BME280;10722;51.910;8.352;2023-07-24T03:28:04;99695.78;;;17.19;100.00
21129;BME280;10722;51.910;8.352;2023-07-24T03:30:49;99699.50;;;17.10;100.00
21129;BME280;10722;51.910;8.352;2023-07-24T03:33:35;99704.75;;;17.09;100.00
21129;BME280;10722;51.910;8.352;2023-07-24T03:36:20;99697.78;;;17.09;100.00
21129;BME280;10722;51.910;8.352;2023-07-24T03:39:12;99684.66;;;17.11;100.00
21129;BME280;10722;51.910;8.352;2023-07-24T03:41:57;99678.41;;;17.18;100.00
21129;BME280;10722;51.910;8.352;2023-07-24T03:44:42;99670.38;;;17.24;100.00
21129;BME280;10722;51.910;8.352;2023-07-24T03:47:27;99672.19;;;17.22;100.00
21129;BME280;10722;51.910;8.352;2023-07-24T03:50:12;99660.03;;;17.21;100.00
21129;BME280;10722;51.910;8.352;2023-07-24T03:52:58;99658.63;;;17.08;100.00
21129;BME280;10722;51.910;8.352;2023-07-24T03:55:42;99658.38;;;17.17;100.00
21129;BME280;10722;51.910;8.352;2023-07-24T03:58:28;99636.44;;;17.22;100.00
21129;BME280;10722;51.910;8.352;2023-07-24T04:01:13;99635.69;;;17.17;100.00
21129;BME280;10722;51.910;8.352;2023-07-24T04:03:59;99612.97;;;17.21;100.00
21129;BME280;10722;51.910;8.352;2023-07-24T04:06:45;99617.13;;;17.28;100.00
21129;BME280;10722;51.910;8.352;2023-07-24T04:09:31;99614.41;;;17.31;100.00
21129;BME280;10722;51.910;8.352;2023-07-24T04:12:16;99597.69;;;17.37;100.00
21129;BME280;10722;51.910;8.352;2023-07-24T04:15:01;99587.34;;;17.34;100.00
21129;BME280;10722;51.910;8.352;2023-07-24T04:17:46;99580.97;;;17.44;100.00
21129;BME280;10722;51.910;8.352;2023-07-24T04:20:31;99590.75;;;17.37;100.00
21129;BME280;10722;51.910;8.352;2023-07-24T04:23:16;99588.28;;;17.31;100.00
21129;BME280;10722;51.910;8.352;2023-07-24T04:26:01;99602.06;;;17.36;100.00
21129;BME280;10722;51.910;8.352;2023-07-24T04:28:46;99597.59;;;17.41;100.00
21129;BME280;10722;51.910;8.352;2023-07-24T04:31:31;99582.72;;;17.43;100.00
21129;BME280;10722;51.910;8.352;2023-07-24T04:34:16;99575.50;;;17.52;100.00
21129;BME280;10722;51.910;8.352;2023-07-24T04:37:01;99587.03;;;17.44;100.00
21129;BME280;10722;51.910;8.352;2023-07-24T04:39:46;99595.50;;;17.54;100.00
21129;BME280;10722;51.910;8.352;2023-07-24T04:42:31;99598.22;;;17.50;100.00
21129;BME280;10722;51.910;8.352;2023-07-24T04:45:16;99598.13;;;17.53;100.00
21129;BME280;10722;51.910;8.352;2023-07-24T04:48:01;99598.88;;;17.56;100.00
21129;BME280;10722;51.910;8.352;2023-07-24T04:50:53;99590.00;;;17.62;100.00
21129;BME280;10722;51.910;8.352;2023-07-24T04:53:38;99585.88;;;17.55;100.00
21129;BME280;10722;51.910;8.352;2023-07-24T04:56:23;99573.78;;;17.51;100.00
21129;BME280;10722;51.910;8.352;2023-07-24T04:59:08;99584.97;;;17.56;100.00
21129;BME280;10722;51.910;8.352;2023-07-24T05:01:53;99576.84;;;17.65;100.00
21129;BME280;10722;51.910;8.352;2023-07-24T05:04:39;99573.34;;;17.66;100.00
21129;BME280;10722;51.910;8.352;2023-07-24T05:07:24;99572.66;;;17.59;100.00
21129;BME280;10722;51.910;8.352;2023-07-24T05:10:09;99570.84;;;17.61;100.00
21129;BME280;10722;51.910;8.352;2023-07-24T05:12:54;99577.88;;;17.59;100.00
21129;BME280;10722;51.910;8.352;2023-07-24T05:15:39;99576.09;;;17.61;100.00
21129;BME280;10722;51.910;8.352;2023-07-24T05:18:24;99567.06;;;17.72;100.00
21129;BME280;10722;51.910;8.352;2023-07-24T05:21:09;99567.06;;;17.72;100.00
21129;BME280;10722;51.910;8.352;2023-07-24T05:23:54;99563.25;;;17.83;100.00
21129;BME280;10722;51.910;8.352;2023-07-24T05:26:39;99566.69;;;17.85;100.00
21129;BME280;10722;51.910;8.352;2023-07-24T05:29:24;99552.72;;;17.85;100.00
21129;BME280;10722;51.910;8.352;2023-07-24T05:32:09;99561.44;;;17.85;100.00
21129;BME280;10722;51.910;8.352;2023-07-24T05:34:54;99571.81;;;17.88;100.00
21129;BME280;10722;51.910;8.352;2023-07-24T05:37:39;99567.47;;;17.87;100.00
21129;BME280;10722;51.910;8.352;2023-07-24T05:40:24;99574.53;;;17.85;100.00
21129;BME280;10722;51.910;8.352;2023-07-24T05:43:09;99577.28;;;17.81;100.00
21129;BME280;10722;51.910;8.352;2023-07-24T05:45:55;99598.22;;;17.81;100.00
21129;BME280;10722;51.910;8.352;2023-07-24T05:48:41;99598.50;;;17.70;100.00
21129;BME280;10722;51.910;8.352;2023-07-24T05:51:26;99594.25;;;17.66;100.00
21129;BME280;10722;51.910;8.352;2023-07-24T05:54:11;99601.25;;;17.65;100.00
21129;BME280;10722;51.910;8.352;2023-07-24T05:56:56;99615.38;;;17.60;100.00
21129;BME280;10722;51.910;8.352;2023-07-24T05:59:42;99626.94;;;17.51;100.00
21129;BME280;10722;51.910;8.352;2023-07-24T06:02:27;99631.47;;;17.44;100.00
21129;BME280;10722;51.910;8.352;2023-07-24T06:05:11;99627.09;;;17.45;100.00
21129;BME280;10722;51.910;8.352;2023-07-24T06:07:56;99618.50;;;17.41;100.00
21129;BME280;10722;51.910;8.352;2023-07-24T06:10:41;99628.94;;;17.41;100.00
21129;BME280;10722;51.910;8.352;2023-07-24T06:13:26;99635.94;;;17.41;100.00
21129;BME280;10722;51.910;8.352;2023-07-24T06:16:11;99642.75;;;17.46;100.00
21129;BME280;10722;51.910;8.352;2023-07-24T06:18:57;99642.75;;;17.46;100.00
21129;BME280;10722;51.910;8.352;2023-07-24T06:21:42;99638.41;;;17.45;100.00
21129;BME280;10722;51.910;8.352;2023-07-24T06:24:27;99645.38;;;17.46;100.00
21129;BME280;10722;51.910;8.352;2023-07-24T06:27:12;99637.34;;;17.53;100.00
21129;BME280;10722;51.910;8.352;2023-07-24T06:29:57;99637.44;;;17.50;100.00
21129;BME280;10722;51.910;8.352;2023-07-24T06:32:58;99659.97;;;17.54;100.00
21129;BME280;10722;51.910;8.352;2023-07-24T06:35:45;99657.25;;;17.58;100.00
21129;BME280;10722;51.910;8.352;2023-07-24T06:38:30;99658.91;;;17.61;100.00
21129;BME280;10722;51.910;8.352;2023-07-24T06:41:16;99652.56;;;17.69;100.00
21129;BME280;10722;51.910;8.352;2023-07-24T06:44:01;99655.16;;;17.71;100.00
21129;BME280;10722;51.910;8.352;2023-07-24T06:46:47;99649.78;;;17.76;100.00
21129;BME280;10722;51.910;8.352;2023-07-24T06:49:33;99657.59;;;17.77;100.00
21129;BME280;10722;51.910;8.352;2023-07-24T06:52:18;99659.84;;;17.91;100.00
21129;BME280;10722;51.910;8.352;2023-07-24T06:55:04;99664.28;;;17.87;100.00
21129;BME280;10722;51.910;8.352;2023-07-24T06:57:50;99651.03;;;17.94;100.00
21129;BME280;10722;51.910;8.352;2023-07-24T07:00:35;99654.34;;;17.99;100.00
21129;BME280;10722;51.910;8.352;2023-07-24T07:03:21;99652.34;;;18.08;100.00
21129;BME280;10722;51.910;8.352;2023-07-24T07:06:07;99657.41;;;18.13;100.00
21129;BME280;10722;51.910;8.352;2023-07-24T07:08:51;99635.91;;;18.03;100.00
21129;BME280;10722;51.910;8.352;2023-07-24T07:11:36;99631.09;;;17.89;100.00
21129;BME280;10722;51.910;8.352;2023-07-24T07:14:22;99642.28;;;17.95;100.00
21129;BME280;10722;51.910;8.352;2023-07-24T07:17:07;99641.38;;;17.96;100.00
21129;BME280;10722;51.910;8.352;2023-07-24T07:19:52;99647.22;;;18.04;100.00
21129;BME280;10722;51.910;8.352;2023-07-24T07:22:38;99646.41;;;18.02;100.00
21129;BME280;10722;51.910;8.352;2023-07-24T07:25:23;99647.97;;;18.07;100.00
21129;BME280;10722;51.910;8.352;2023-07-24T07:28:08;99640.22;;;18.04;100.00
21129;BME280;10722;51.910;8.352;2023-07-24T07:30:53;99638.31;;;18.11;100.00
21129;BME280;10722;51.910;8.352;2023-07-24T07:33:38;99637.69;;;18.01;100.00
21129;BME280;10722;51.910;8.352;2023-07-24T07:36:24;99647.31;;;18.01;100.00
21129;BME280;10722;51.910;8.352;2023-07-24T07:39:09;99632.13;;;18.13;100.00
21129;BME280;10722;51.910;8.352;2023-07-24T07:41:55;99627.50;;;18.22;100.00
21129;BME280;10722;51.910;8.352;2023-07-24T07:45:01;99625.84;;;18.19;100.00
21129;BME280;10722;51.910;8.352;2023-07-24T07:47:46;99631.06;;;18.19;100.00
21129;BME280;10722;51.910;8.352;2023-07-24T07:50:31;99636.00;;;18.28;100.00
21129;BME280;10722;51.910;8.352;2023-07-24T07:53:16;99623.03;;;18.52;100.00
21129;BME280;10722;51.910;8.352;2023-07-24T07:56:01;99624.13;;;18.71;100.00
21129;BME280;10722;51.910;8.352;2023-07-24T07:58:46;99624.22;;;18.70;100.00
21129;BME280;10722;51.910;8.352;2023-07-24T08:01:31;99609.88;;;18.81;100.00
21129;BME280;10722;51.910;8.352;2023-07-24T08:04:16;99589.78;;;18.80;100.00
21129;BME280;10722;51.910;8.352;2023-07-24T08:07:01;99594.28;;;19.02;100.00
21129;BME280;10722;51.910;8.352;2023-07-24T08:09:47;99580.19;;;18.81;100.00
21129;BME280;10722;51.910;8.352;2023-07-24T08:12:31;99574.88;;;18.83;100.00
21129;BME280;10722;51.910;8.352;2023-07-24T08:15:16;99586.00;;;18.89;100.00
21129;BME280;10722;51.910;8.352;2023-07-24T08:18:04;99577.28;;;18.89;100.00
21129;BME280;10722;51.910;8.352;2023-07-24T08:20:49;99571.34;;;18.84;100.00
21129;BME280;10722;51.910;8.352;2023-07-24T08:23:34;99573.19;;;18.81;100.00
21129;BME280;10722;51.910;8.352;2023-07-24T08:26:19;99573.91;;;18.85;100.00
21129;BME280;10722;51.910;8.352;2023-07-24T08:29:05;99568.69;;;18.85;100.00
21129;BME280;10722;51.910;8.352;2023-07-24T08:31:50;99564.19;;;18.89;100.00
21129;BME280;10722;51.910;8.352;2023-07-24T08:34:35;99565.63;;;18.97;100.00
21129;BME280;10722;51.910;8.352;2023-07-24T08:37:24;99559.97;;;19.10;100.00
21129;BME280;10722;51.910;8.352;2023-07-24T08:40:09;99557.69;;;19.24;100.00
21129;BME280;10722;51.910;8.352;2023-07-24T08:42:55;99558.66;;;19.21;100.00
21129;BME280;10722;51.910;8.352;2023-07-24T08:45:41;99552.22;;;19.30;100.00
21129;BME280;10722;51.910;8.352;2023-07-24T08:48:29;99548.06;;;19.24;100.00
21129;BME280;10722;51.910;8.352;2023-07-24T08:51:15;99549.56;;;19.32;100.00
21129;BME280;10722;51.910;8.352;2023-07-24T08:54:01;99554.59;;;19.36;100.00
21129;BME280;10722;51.910;8.352;2023-07-24T08:56:46;99552.66;;;19.41;100.00
21129;BME280;10722;51.910;8.352;2023-07-24T08:59:31;99544.00;;;19.39;100.00
21129;BME280;10722;51.910;8.352;2023-07-24T09:02:17;99546.69;;;19.38;100.00
21129;BME280;10722;51.910;8.352;2023-07-24T09:05:03;99525.22;;;19.50;100.00
21129;BME280;10722;51.910;8.352;2023-07-24T09:07:48;99530.25;;;19.56;100.00
21129;BME280;10722;51.910;8.352;2023-07-24T09:10:33;99533.34;;;19.67;100.00
21129;BME280;10722;51.910;8.352;2023-07-24T09:13:19;99521.16;;;19.65;100.00
21129;BME280;10722;51.910;8.352;2023-07-24T09:16:04;99509.00;;;19.62;100.00
21129;BME280;10722;51.910;8.352;2023-07-24T09:18:51;99519.44;;;19.65;100.00
21129;BME280;10722;51.910;8.352;2023-07-24T09:21:39;99525.78;;;19.82;100.00
21129;BME280;10722;51.910;8.352;2023-07-24T09:24:25;99508.50;;;19.98;100.00
21129;BME280;10722;51.910;8.352;2023-07-24T09:27:10;99516.19;;;20.25;100.00
21129;BME280;10722;51.910;8.352;2023-07-24T09:29:56;99498.94;;;20.40;100.00
21129;BME280;10722;51.910;8.352;2023-07-24T09:32:41;99504.34;;;20.35;100.00
21129;BME280;10722;51.910;8.352;2023-07-24T09:35:26;99498.53;;;20.49;100.00
21129;BME280;10722;51.910;8.352;2023-07-24T09:38:12;99486.63;;;20.40;100.00
21129;BME280;10722;51.910;8.352;2023-07-24T09:40:57;99498.56;;;20.06;99.65
21129;BME280;10722;51.910;8.352;2023-07-24T09:43:42;99507.09;;;19.89;100.00
21129;BME280;10722;51.910;8.352;2023-07-24T09:46:27;99534.09;;;19.71;100.00
21129;BME280;10722;51.910;8.352;2023-07-24T09:49:14;99553.59;;;19.40;100.00
21129;BME280;10722;51.910;8.352;2023-07-24T09:52:00;99565.06;;;19.38;100.00
21129;BME280;10722;51.910;8.352;2023-07-24T09:55:07;99570.13;;;19.17;100.00
21129;BME280;10722;51.910;8.352;2023-07-24T09:57:58;99581.03;;;18.81;100.00
21129;BME280;10722;51.910;8.352;2023-07-24T10:00:44;99579.81;;;18.65;100.00
21129;BME280;10722;51.910;8.352;2023-07-24T10:03:30;99573.44;;;18.72;100.00
21129;BME280;10722;51.910;8.352;2023-07-24T10:06:16;99575.00;;;18.79;100.00
21129;BME280;10722;51.910;8.352;2023-07-24T10:09:02;99570.25;;;19.14;100.00
21129;BME280;10722;51.910;8.352;2023-07-24T10:11:47;99565.91;;;19.38;100.00
21129;BME280;10722;51.910;8.352;2023-07-24T10:14:33;99567.19;;;19.74;100.00
21129;BME280;10722;51.910;8.352;2023-07-24T10:17:38;99558.63;;;19.92;100.00
21129;BME280;10722;51.910;8.352;2023-07-24T10:20:32;99549.25;;;19.39;100.00
21129;BME280;10722;51.910;8.352;2023-07-24T10:23:18;99549.44;;;19.35;100.00
21129;BME280;10722;51.910;8.352;2023-07-24T10:26:07;99545.19;;;19.31;100.00
21129;BME280;10722;51.910;8.352;2023-07-24T10:28:53;99539.16;;;19.29;100.00
21129;BME280;10722;51.910;8.352;2023-07-24T10:31:38;99527.81;;;19.28;100.00
21129;BME280;10722;51.910;8.352;2023-07-24T10:34:24;99529.22;;;19.13;100.00
21129;BME280;10722;51.910;8.352;2023-07-24T10:37:09;99535.44;;;19.11;100.00
21129;BME280;10722;51.910;8.352;2023-07-24T10:39:54;99541.03;;;19.25;100.00
21129;BME280;10722;51.910;8.352;2023-07-24T10:42:39;99547.53;;;19.85;100.00
21129;BME280;10722;51.910;8.352;2023-07-24T10:45:24;99520.47;;;20.05;100.00
21129;BME280;10722;51.910;8.352;2023-07-24T10:48:09;99523.66;;;19.91;100.00
21129;BME280;10722;51.910;8.352;2023-07-24T10:50:54;99494.91;;;20.10;100.00
21129;BME280;10722;51.910;8.352;2023-07-24T10:53:47;99495.00;;;20.50;100.00
21129;BME280;10722;51.910;8.352;2023-07-24T10:56:32;99490.56;;;20.72;100.00
21129;BME280;10722;51.910;8.352;2023-07-24T10:59:17;99480.84;;;20.52;100.00
21129;BME280;10722;51.910;8.352;2023-07-24T11:02:04;99475.09;;;20.44;100.00
21129;BME280;10722;51.910;8.352;2023-07-24T11:04:49;99458.03;;;20.54;100.00
21129;BME280;10722;51.910;8.352;2023-07-24T11:07:34;99468.94;;;20.66;100.00
21129;BME280;10722;51.910;8.352;2023-07-24T11:10:22;99460.25;;;20.64;100.00
21129;BME280;10722;51.910;8.352;2023-07-24T11:13:10;99473.38;;;20.43;100.00
21129;BME280;10722;51.910;8.352;2023-07-24T11:15:55;99475.09;;;20.44;100.00
21129;BME280;10722;51.910;8.352;2023-07-24T11:18:48;99481.09;;;20.68;100.00
21129;BME280;10722;51.910;8.352;2023-07-24T11:21:40;99467.41;;;20.60;99.77
21129;BME280;10722;51.910;8.352;2023-07-24T11:24:25;99472.06;;;20.74;98.32
21129;BME280;10722;51.910;8.352;2023-07-24T11:27:15;99474.69;;;20.74;98.83
21129;BME280;10722;51.910;8.352;2023-07-24T11:30:00;99477.50;;;20.49;99.06
21129;BME280;10722;51.910;8.352;2023-07-24T11:32:45;99500.69;;;20.39;99.77
21129;BME280;10722;51.910;8.352;2023-07-24T11:35:31;99506.53;;;20.25;100.00
21129;BME280;10722;51.910;8.352;2023-07-24T11:38:16;99508.94;;;20.30;100.00
21129;BME280;10722;51.910;8.352;2023-07-24T11:41:01;99509.63;;;20.35;100.00
21129;BME280;10722;51.910;8.352;2023-07-24T11:43:50;99509.13;;;20.47;100.00
21129;BME280;10722;51.910;8.352;2023-07-24T11:46:36;99511.47;;;20.33;100.00
21129;BME280;10722;51.910;8.352;2023-07-24T11:49:21;99508.94;;;20.30;100.00
21129;BME280;10722;51.910;8.352;2023-07-24T11:52:06;99484.63;;;20.04;100.00
21129;BME280;10722;51.910;8.352;2023-07-24T11:54:56;99482.66;;;20.09;100.00
21129;BME280;10722;51.910;8.352;2023-07-24T11:57:41;99470.91;;;19.98;100.00
21129;BME280;10722;51.910;8.352;2023-07-24T12:00:27;99465.69;;;20.18;100.00
21129;BME280;10722;51.910;8.352;2023-07-24T12:03:12;99461.03;;;20.25;100.00
21129;BME280;10722;51.910;8.352;2023-07-24T12:05:57;99453.34;;;20.20;99.33
21129;BME280;10722;51.910;8.352;2023-07-24T12:08:44;99461.09;;;20.23;100.00
21129;BME280;10722;51.910;8.352;2023-07-24T12:11:31;99440.53;;;20.12;100.00
21129;BME280;10722;51.910;8.352;2023-07-24T12:14:16;99465.38;;;20.26;100.00
21129;BME280;10722;51.910;8.352;2023-07-24T12:17:02;99449.72;;;20.43;100.00
21129;BME280;10722;51.910;8.352;2023-07-24T12:19:48;99451.69;;;20.18;100.00
21129;BME280;10722;51.910;8.352;2023-07-24T12:22:34;99456.72;;;20.02;100.00
21129;BME280;10722;51.910;8.352;2023-07-24T12:25:19;99482.94;;;20.03;100.00
21129;BME280;10722;51.910;8.352;2023-07-24T12:28:04;99469.50;;;20.11;100.00
21129;BME280;10722;51.910;8.352;2023-07-24T12:30:49;99466.06;;;20.29;100.00
21129;BME280;10722;51.910;8.352;2023-07-24T12:33:35;99479.34;;;20.26;100.00
21129;BME280;10722;51.910;8.352;2023-07-24T12:36:20;99500.56;;;20.22;100.00
21129;BME280;10722;51.910;8.352;2023-07-24T12:39:05;99530.53;;;19.72;100.00
21129;BME280;10722;51.910;8.352;2023-07-24T12:41:50;99556.16;;;19.18;100.00
21129;BME280;10722;51.910;8.352;2023-07-24T12:44:35;99548.56;;;19.11;100.00
21129;BME280;10722;51.910;8.352;2023-07-24T12:47:20;99554.94;;;19.03;100.00
21129;BME280;10722;51.910;8.352;2023-07-24T12:50:05;99551.34;;;18.54;100.00
21129;BME280;10722;51.910;8.352;2023-07-24T12:52:52;99537.72;;;18.45;100.00
21129;BME280;10722;51.910;8.352;2023-07-24T12:55:38;99532.59;;;18.42;100.00
21129;BME280;10722;51.910;8.352;2023-07-24T12:58:23;99525.66;;;18.66;100.00
21129;BME280;10722;51.910;8.352;2023-07-24T13:01:08;99532.91;;;18.84;100.00
21129;BME280;10722;51.910;8.352;2023-07-24T13:03:53;99522.72;;;19.00;100.00
21129;BME280;10722;51.910;8.352;2023-07-24T13:06:39;99520.94;;;19.00;100.00
21129;BME280;10722;51.910;8.352;2023-07-24T13:09:24;99540.31;;;18.96;100.00
21129;BME280;10722;51.910;8.352;2023-07-24T13:12:09;99566.31;;;18.77;100.00
21129;BME280;10722;51.910;8.352;2023-07-24T13:14:55;99562.91;;;18.75;100.00
21129;BME280;10722;51.910;8.352;2023-07-24T13:17:40;99558.22;;;18.32;100.00
21129;BME280;10722;51.910;8.352;2023-07-24T13:20:25;99557.50;;;18.27;100.00
21129;BME280;10722;51.910;8.352;2023-07-24T13:23:10;99560.00;;;17.74;100.00
21129;BME280;10722;51.910;8.352;2023-07-24T13:25:55;99582.13;;;17.63;100.00
21129;BME280;10722;51.910;8.352;2023-07-24T13:28:40;99561.88;;;17.70;100.00
21129;BME280;10722;51.910;8.352;2023-07-24T13:31:25;99575.78;;;17.70;100.00
21129;BME280;10722;51.910;8.352;2023-07-24T13:34:10;99579.53;;;17.62;100.00
21129;BME280;10722;51.910;8.352;2023-07-24T13:36:56;99575.28;;;17.28;100.00
21129;BME280;10722;51.910;8.352;2023-07-24T13:39:41;99579.69;;;16.95;100.00
21129;BME280;10722;51.910;8.352;2023-07-24T13:42:26;99561.28;;;16.99;100.00
21129;BME280;10722;51.910;8.352;2023-07-24T13:45:11;99480.94;;;17.08;100.00
21129;BME280;10722;51.910;8.352;2023-07-24T13:47:57;99430.97;;;17.18;100.00
21129;BME280;10722;51.910;8.352;2023-07-24T13:50:42;99383.09;;;17.44;100.00
21129;BME280;10722;51.910;8.352;2023-07-24T13:53:28;99372.41;;;17.79;100.00
21129;BME280;10722;51.910;8.352;2023-07-24T13:56:13;99384.03;;;17.97;100.00
21129;BME280;10722;51.910;8.352;2023-07-24T13:58:58;99369.72;;;18.07;100.00
21129;BME280;10722;51.910;8.352;2023-07-24T14:01:43;99371.00;;;17.95;100.00
21129;BME280;10722;51.910;8.352;2023-07-24T14:04:28;99380.25;;;18.30;100.00
21129;BME280;10722;51.910;8.352;2023-07-24T14:07:13;99379.22;;;18.58;100.00
21129;BME280;10722;51.910;8.352;2023-07-24T14:09:58;99360.28;;;18.51;100.00
21129;BME280;10722;51.910;8.352;2023-07-24T14:12:43;99355.38;;;18.89;100.00
21129;BME280;10722;51.910;8.352;2023-07-24T14:15:28;99356.19;;;18.91;100.00
21129;BME280;10722;51.910;8.352;2023-07-24T14:18:14;99363.09;;;19.16;100.00
21129;BME280;10722;51.910;8.352;2023-07-24T14:20:59;99355.78;;;19.02;100.00
21129;BME280;10722;51.910;8.352;2023-07-24T14:23:44;99379.94;;;19.10;100.00
21129;BME280;10722;51.910;8.352;2023-07-24T14:26:31;99392.72;;;18.96;100.00
21129;BME280;10722;51.910;8.352;2023-07-24T14:29:16;99386.63;;;18.95;100.00